sensor_id;sensor_type;location;lat;lon;timestamp;P1;durP1;ratioP1;P2;durP2;ratioP2
65759;SDS011;52496;51.082;5.066;2023-12-04T00:01:08;13.70;;;4.75;;
65759;SDS011;52496;51.082;5.066;2023-12-04T00:03:38;10.90;;;4.57;;
65759;SDS011;52496;51.082;5.066;2023-12-04T00:06:10;9.95;;;4.90;;
65759;SDS011;52496;51.082;5.066;2023-12-04T00:08:40;15.00;;;4.43;;
65759;SDS011;52496;51.082;5.066;2023-12-04T00:11:11;8.73;;;3.88;;
65759;SDS011;52496;51.082;5.066;2023-12-04T00:13:42;8.63;;;4.18;;
65759;SDS011;52496;51.082;5.066;2023-12-04T00:16:12;7.95;;;4.10;;
65759;SDS011;52496;51.082;5.066;2023-12-04T00:18:43;8.82;;;4.47;;
65759;SDS011;52496;51.082;5.066;2023-12-04T00:21:13;13.52;;;4.75;;
65759;SDS011;52496;51.082;5.066;2023-12-04T00:23:44;6.93;;;4.50;;
65759;SDS011;52496;51.082;5.066;2023-12-04T00:26:15;11.77;;;4.43;;
65759;SDS011;52496;51.082;5.066;2023-12-04T00:28:45;10.13;;;4.70;;
65759;SDS011;52496;51.082;5.066;2023-12-04T00:31:16;10.80;;;5.07;;
65759;SDS011;52496;51.082;5.066;2023-12-04T00:33:46;9.32;;;4.15;;
65759;SDS011;52496;51.082;5.066;2023-12-04T00:36:18;9.30;;;4.75;;
65759;SDS011;52496;51.082;5.066;2023-12-04T00:38:49;8.18;;;3.70;;
65759;SDS011;52496;51.082;5.066;2023-12-04T00:41:20;10.20;;;4.57;;
65759;SDS011;52496;51.082;5.066;2023-12-04T00:43:50;10.70;;;4.55;;
65759;SDS011;52496;51.082;5.066;2023-12-04T00:46:21;11.27;;;5.00;;
65759;SDS011;52496;51.082;5.066;2023-12-04T00:48:51;7.57;;;4.25;;
65759;SDS011;52496;51.082;5.066;2023-12-04T00:51:22;8.10;;;4.72;;
65759;SDS011;52496;51.082;5.066;2023-12-04T00:53:53;9.73;;;4.95;;
65759;SDS011;52496;51.082;5.066;2023-12-04T00:56:23;9.35;;;4.38;;
65759;SDS011;52496;51.082;5.066;2023-12-04T00:58:54;8.02;;;3.80;;
65759;SDS011;52496;51.082;5.066;2023-12-04T01:01:25;10.43;;;5.07;;
65759;SDS011;52496;51.082;5.066;2023-12-04T01:03:56;9.75;;;4.68;;
65759;SDS011;52496;51.082;5.066;2023-12-04T01:06:26;11.65;;;6.05;;
65759;SDS011;52496;51.082;5.066;2023-12-04T01:08:57;12.50;;;4.88;;
65759;SDS011;52496;51.082;5.066;2023-12-04T01:11:28;10.57;;;4.28;;
65759;SDS011;52496;51.082;5.066;2023-12-04T01:13:58;6.93;;;3.72;;
65759;SDS011;52496;51.082;5.066;2023-12-04T01:16:29;10.02;;;4.93;;
65759;SDS011;52496;51.082;5.066;2023-12-04T01:18:59;10.48;;;4.47;;
65759;SDS011;52496;51.082;5.066;2023-12-04T01:21:30;7.50;;;4.68;;
65759;SDS011;52496;51.082;5.066;2023-12-04T01:24:01;9.20;;;4.22;;
65759;SDS011;52496;51.082;5.066;2023-12-04T01:26:31;10.27;;;5.97;;
65759;SDS011;52496;51.082;5.066;2023-12-04T01:29:03;10.43;;;4.78;;
65759;SDS011;52496;51.082;5.066;2023-12-04T01:31:33;11.98;;;4.47;;
65759;SDS011;52496;51.082;5.066;2023-12-04T01:34:04;6.82;;;3.47;;
65759;SDS011;52496;51.082;5.066;2023-12-04T01:36:34;10.38;;;5.03;;
65759;SDS011;52496;51.082;5.066;2023-12-04T01:39:05;10.68;;;4.93;;
65759;SDS011;52496;51.082;5.066;2023-12-04T01:41:36;8.77;;;4.10;;
65759;SDS011;52496;51.082;5.066;2023-12-04T01:44:06;9.52;;;4.25;;
65759;SDS011;52496;51.082;5.066;2023-12-04T01:46:37;10.40;;;4.25;;
65759;SDS011;52496;51.082;5.066;2023-12-04T01:49:08;7.75;;;3.78;;
65759;SDS011;52496;51.082;5.066;2023-12-04T01:51:39;10.98;;;4.30;;
65759;SDS011;52496;51.082;5.066;2023-12-04T01:54:10;8.38;;;4.07;;
65759;SDS011;52496;51.082;5.066;2023-12-04T01:56:41;13.38;;;5.35;;
65759;SDS011;52496;51.082;5.066;2023-12-04T01:59:13;9.43;;;5.38;;
65759;SDS011;52496;51.082;5.066;2023-12-04T02:01:45;11.25;;;4.82;;
65759;SDS011;52496;51.082;5.066;2023-12-04T02:04:15;9.32;;;4.63;;
65759;SDS011;52496;51.082;5.066;2023-12-04T02:06:46;9.02;;;4.03;;
65759;SDS011;52496;51.082;5.066;2023-12-04T02:09:16;8.60;;;4.00;;
65759;SDS011;52496;51.082;5.066;2023-12-04T02:11:47;12.10;;;5.35;;
65759;SDS011;52496;51.082;5.066;2023-12-04T02:14:17;10.63;;;4.22;;
65759;SDS011;52496;51.082;5.066;2023-12-04T02:16:48;9.13;;;5.03;;
65759;SDS011;52496;51.082;5.066;2023-12-04T02:19:20;9.80;;;4.78;;
65759;SDS011;52496;51.082;5.066;2023-12-04T02:21:51;9.80;;;5.20;;
65759;SDS011;52496;51.082;5.066;2023-12-04T02:24:21;8.10;;;4.30;;
65759;SDS011;52496;51.082;5.066;2023-12-04T02:26:53;13.57;;;6.05;;
65759;SDS011;52496;51.082;5.066;2023-12-04T02:29:32;7.38;;;3.55;;
65759;SDS011;52496;51.082;5.066;2023-12-04T02:32:09;9.20;;;4.60;;
65759;SDS011;52496;51.082;5.066;2023-12-04T02:34:45;9.32;;;4.90;;
65759;SDS011;52496;51.082;5.066;2023-12-04T02:37:17;9.88;;;4.95;;
65759;SDS011;52496;51.082;5.066;2023-12-04T02:39:50;8.23;;;3.67;;
65759;SDS011;52496;51.082;5.066;2023-12-04T02:42:24;7.38;;;4.25;;
65759;SDS011;52496;51.082;5.066;2023-12-04T02:44:56;7.38;;;4.10;;
65759;SDS011;52496;51.082;5.066;2023-12-04T02:47:26;8.50;;;4.82;;
65759;SDS011;52496;51.082;5.066;2023-12-04T02:49:57;7.93;;;4.28;;
65759;SDS011;52496;51.082;5.066;2023-12-04T02:52:28;9.15;;;4.88;;
65759;SDS011;52496;51.082;5.066;2023-12-04T02:54:58;9.98;;;5.78;;
65759;SDS011;52496;51.082;5.066;2023-12-04T02:57:29;9.02;;;4.63;;
65759;SDS011;52496;51.082;5.066;2023-12-04T02:59:59;12.88;;;5.55;;
65759;SDS011;52496;51.082;5.066;2023-12-04T03:02:30;11.93;;;5.82;;
65759;SDS011;52496;51.082;5.066;2023-12-04T03:05:01;10.90;;;5.72;;
65759;SDS011;52496;51.082;5.066;2023-12-04T03:07:31;9.38;;;4.25;;
65759;SDS011;52496;51.082;5.066;2023-12-04T03:10:02;9.60;;;4.93;;
65759;SDS011;52496;51.082;5.066;2023-12-04T03:12:33;10.23;;;5.07;;
65759;SDS011;52496;51.082;5.066;2023-12-04T03:15:04;13.27;;;6.82;;
65759;SDS011;52496;51.082;5.066;2023-12-04T03:17:35;11.68;;;6.80;;
65759;SDS011;52496;51.082;5.066;2023-12-04T03:20:05;15.77;;;8.15;;
65759;SDS011;52496;51.082;5.066;2023-12-04T03:22:38;13.25;;;6.63;;
65759;SDS011;52496;51.082;5.066;2023-12-04T03:25:09;11.10;;;5.57;;
65759;SDS011;52496;51.082;5.066;2023-12-04T03:27:39;11.63;;;6.93;;
65759;SDS011;52496;51.082;5.066;2023-12-04T03:30:10;14.48;;;7.63;;
65759;SDS011;52496;51.082;5.066;2023-12-04T03:32:41;12.57;;;6.75;;
65759;SDS011;52496;51.082;5.066;2023-12-04T03:35:11;12.38;;;6.40;;
65759;SDS011;52496;51.082;5.066;2023-12-04T03:37:42;12.57;;;6.63;;
65759;SDS011;52496;51.082;5.066;2023-12-04T03:40:12;11.32;;;5.63;;
65759;SDS011;52496;51.082;5.066;2023-12-04T03:42:43;12.20;;;5.88;;
65759;SDS011;52496;51.082;5.066;2023-12-04T03:45:14;10.38;;;5.15;;
65759;SDS011;52496;51.082;5.066;2023-12-04T03:47:44;11.95;;;5.40;;
65759;SDS011;52496;51.082;5.066;2023-12-04T03:50:15;8.68;;;4.25;;
65759;SDS011;52496;51.082;5.066;2023-12-04T03:52:45;9.77;;;4.63;;
65759;SDS011;52496;51.082;5.066;2023-12-04T03:55:16;10.60;;;4.90;;
65759;SDS011;52496;51.082;5.066;2023-12-04T03:57:49;15.95;;;5.82;;
65759;SDS011;52496;51.082;5.066;2023-12-04T04:00:20;11.85;;;5.70;;
65759;SDS011;52496;51.082;5.066;2023-12-04T04:02:51;11.05;;;5.25;;
65759;SDS011;52496;51.082;5.066;2023-12-04T04:05:21;13.13;;;6.20;;
65759;SDS011;52496;51.082;5.066;2023-12-04T04:07:52;13.10;;;6.38;;
65759;SDS011;52496;51.082;5.066;2023-12-04T04:10:23;18.83;;;6.90;;
65759;SDS011;52496;51.082;5.066;2023-12-04T04:12:54;13.50;;;7.60;;
65759;SDS011;52496;51.082;5.066;2023-12-04T04:15:25;12.38;;;6.55;;
65759;SDS011;52496;51.082;5.066;2023-12-04T04:17:55;12.43;;;7.38;;
65759;SDS011;52496;51.082;5.066;2023-12-04T04:20:26;12.40;;;7.10;;
65759;SDS011;52496;51.082;5.066;2023-12-04T04:22:56;12.27;;;6.68;;
65759;SDS011;52496;51.082;5.066;2023-12-04T04:25:27;10.30;;;5.43;;
65759;SDS011;52496;51.082;5.066;2023-12-04T04:27:58;11.77;;;5.32;;
65759;SDS011;52496;51.082;5.066;2023-12-04T04:30:28;11.10;;;4.80;;
65759;SDS011;52496;51.082;5.066;2023-12-04T04:32:59;8.98;;;5.25;;
65759;SDS011;52496;51.082;5.066;2023-12-04T04:35:29;8.35;;;4.05;;
65759;SDS011;52496;51.082;5.066;2023-12-04T04:38:00;8.50;;;4.18;;
65759;SDS011;52496;51.082;5.066;2023-12-04T04:40:31;10.95;;;5.20;;
65759;SDS011;52496;51.082;5.066;2023-12-04T04:43:01;8.05;;;4.95;;
65759;SDS011;52496;51.082;5.066;2023-12-04T04:45:32;8.75;;;4.55;;
65759;SDS011;52496;51.082;5.066;2023-12-04T04:48:03;8.32;;;4.75;;
65759;SDS011;52496;51.082;5.066;2023-12-04T04:50:33;8.00;;;4.50;;
65759;SDS011;52496;51.082;5.066;2023-12-04T04:53:04;9.40;;;4.43;;
65759;SDS011;52496;51.082;5.066;2023-12-04T04:55:34;9.85;;;4.97;;
65759;SDS011;52496;51.082;5.066;2023-12-04T04:58:05;9.65;;;5.13;;
65759;SDS011;52496;51.082;5.066;2023-12-04T05:00:36;12.52;;;5.40;;
65759;SDS011;52496;51.082;5.066;2023-12-04T05:03:06;11.13;;;5.85;;
65759;SDS011;52496;51.082;5.066;2023-12-04T05:05:37;10.15;;;5.75;;
65759;SDS011;52496;51.082;5.066;2023-12-04T05:08:07;11.05;;;6.05;;
65759;SDS011;52496;51.082;5.066;2023-12-04T05:10:39;11.45;;;6.18;;
65759;SDS011;52496;51.082;5.066;2023-12-04T05:13:09;9.35;;;5.50;;
65759;SDS011;52496;51.082;5.066;2023-12-04T05:15:40;12.07;;;5.72;;
65759;SDS011;52496;51.082;5.066;2023-12-04T05:18:10;9.50;;;5.03;;
65759;SDS011;52496;51.082;5.066;2023-12-04T05:20:41;8.43;;;4.35;;
65759;SDS011;52496;51.082;5.066;2023-12-04T05:23:12;7.57;;;3.72;;
65759;SDS011;52496;51.082;5.066;2023-12-04T05:25:42;9.65;;;4.25;;
65759;SDS011;52496;51.082;5.066;2023-12-04T05:28:13;10.07;;;4.40;;
65759;SDS011;52496;51.082;5.066;2023-12-04T05:30:43;8.52;;;4.25;;
65759;SDS011;52496;51.082;5.066;2023-12-04T05:33:14;9.70;;;5.38;;
65759;SDS011;52496;51.082;5.066;2023-12-04T05:35:45;10.27;;;5.30;;
65759;SDS011;52496;51.082;5.066;2023-12-04T05:38:17;11.55;;;4.45;;
65759;SDS011;52496;51.082;5.066;2023-12-04T05:40:48;7.80;;;4.30;;
65759;SDS011;52496;51.082;5.066;2023-12-04T05:43:19;9.05;;;3.88;;
65759;SDS011;52496;51.082;5.066;2023-12-04T05:45:49;8.25;;;4.45;;
65759;SDS011;52496;51.082;5.066;2023-12-04T05:48:20;7.72;;;4.97;;
65759;SDS011;52496;51.082;5.066;2023-12-04T05:50:50;8.20;;;4.18;;
65759;SDS011;52496;51.082;5.066;2023-12-04T05:53:21;7.20;;;3.38;;
65759;SDS011;52496;51.082;5.066;2023-12-04T05:55:51;7.43;;;3.88;;
65759;SDS011;52496;51.082;5.066;2023-12-04T05:58:22;9.82;;;4.80;;
65759;SDS011;52496;51.082;5.066;2023-12-04T06:00:52;7.47;;;3.90;;
65759;SDS011;52496;51.082;5.066;2023-12-04T06:03:23;8.68;;;3.60;;
65759;SDS011;52496;51.082;5.066;2023-12-04T06:05:53;8.82;;;3.45;;
65759;SDS011;52496;51.082;5.066;2023-12-04T06:08:24;7.55;;;4.03;;
65759;SDS011;52496;51.082;5.066;2023-12-04T06:10:54;8.25;;;4.95;;
65759;SDS011;52496;51.082;5.066;2023-12-04T06:13:25;11.05;;;5.57;;
65759;SDS011;52496;51.082;5.066;2023-12-04T06:15:56;10.82;;;5.30;;
65759;SDS011;52496;51.082;5.066;2023-12-04T06:18:26;11.65;;;5.97;;
65759;SDS011;52496;51.082;5.066;2023-12-04T06:20:57;11.75;;;5.63;;
65759;SDS011;52496;51.082;5.066;2023-12-04T06:23:27;7.55;;;5.07;;
65759;SDS011;52496;51.082;5.066;2023-12-04T06:25:58;8.35;;;3.78;;
65759;SDS011;52496;51.082;5.066;2023-12-04T06:28:29;9.30;;;4.30;;
65759;SDS011;52496;51.082;5.066;2023-12-04T06:31:00;8.90;;;4.13;;
65759;SDS011;52496;51.082;5.066;2023-12-04T06:33:31;6.40;;;3.03;;
65759;SDS011;52496;51.082;5.066;2023-12-04T06:36:02;10.48;;;4.25;;
65759;SDS011;52496;51.082;5.066;2023-12-04T06:38:32;8.48;;;4.78;;
65759;SDS011;52496;51.082;5.066;2023-12-04T06:41:07;9.10;;;4.30;;
65759;SDS011;52496;51.082;5.066;2023-12-04T06:43:39;10.70;;;4.40;;
65759;SDS011;52496;51.082;5.066;2023-12-04T06:46:09;9.65;;;5.18;;
65759;SDS011;52496;51.082;5.066;2023-12-04T06:48:44;11.13;;;4.85;;
65759;SDS011;52496;51.082;5.066;2023-12-04T06:51:14;8.90;;;4.40;;
65759;SDS011;52496;51.082;5.066;2023-12-04T06:53:45;6.07;;;3.58;;
65759;SDS011;52496;51.082;5.066;2023-12-04T06:56:15;7.07;;;3.85;;
65759;SDS011;52496;51.082;5.066;2023-12-04T06:58:46;9.48;;;4.28;;
65759;SDS011;52496;51.082;5.066;2023-12-04T07:01:16;7.53;;;3.80;;
65759;SDS011;52496;51.082;5.066;2023-12-04T07:03:47;7.93;;;4.00;;
65759;SDS011;52496;51.082;5.066;2023-12-04T07:06:17;7.75;;;4.03;;
65759;SDS011;52496;51.082;5.066;2023-12-04T07:08:48;7.72;;;3.40;;
65759;SDS011;52496;51.082;5.066;2023-12-04T07:11:18;7.47;;;3.58;;
65759;SDS011;52496;51.082;5.066;2023-12-04T07:13:49;6.35;;;3.83;;
65759;SDS011;52496;51.082;5.066;2023-12-04T07:16:19;6.43;;;3.78;;
65759;SDS011;52496;51.082;5.066;2023-12-04T07:18:50;7.13;;;3.75;;
65759;SDS011;52496;51.082;5.066;2023-12-04T07:21:20;8.35;;;4.30;;
65759;SDS011;52496;51.082;5.066;2023-12-04T07:23:51;8.55;;;4.13;;
65759;SDS011;52496;51.082;5.066;2023-12-04T07:26:22;8.15;;;3.75;;
65759;SDS011;52496;51.082;5.066;2023-12-04T07:28:52;7.72;;;3.60;;
65759;SDS011;52496;51.082;5.066;2023-12-04T07:31:23;8.75;;;3.47;;
65759;SDS011;52496;51.082;5.066;2023-12-04T07:33:55;9.18;;;3.35;;
65759;SDS011;52496;51.082;5.066;2023-12-04T07:36:25;6.10;;;3.60;;
65759;SDS011;52496;51.082;5.066;2023-12-04T07:38:56;8.40;;;3.75;;
65759;SDS011;52496;51.082;5.066;2023-12-04T07:41:26;9.88;;;3.50;;
65759;SDS011;52496;51.082;5.066;2023-12-04T07:43:57;7.70;;;3.80;;
65759;SDS011;52496;51.082;5.066;2023-12-04T07:46:27;5.68;;;3.38;;
65759;SDS011;52496;51.082;5.066;2023-12-04T07:48:58;7.82;;;3.70;;
65759;SDS011;52496;51.082;5.066;2023-12-04T07:51:28;6.95;;;3.63;;
65759;SDS011;52496;51.082;5.066;2023-12-04T07:53:59;6.10;;;3.60;;
65759;SDS011;52496;51.082;5.066;2023-12-04T07:56:29;7.47;;;4.45;;
65759;SDS011;52496;51.082;5.066;2023-12-04T07:59:00;7.45;;;4.22;;
65759;SDS011;52496;51.082;5.066;2023-12-04T08:01:30;6.10;;;3.70;;
65759;SDS011;52496;51.082;5.066;2023-12-04T08:04:01;9.80;;;4.40;;
65759;SDS011;52496;51.082;5.066;2023-12-04T08:06:32;8.32;;;3.40;;
65759;SDS011;52496;51.082;5.066;2023-12-04T08:09:03;8.85;;;3.58;;
65759;SDS011;52496;51.082;5.066;2023-12-04T08:11:36;7.38;;;3.42;;
65759;SDS011;52496;51.082;5.066;2023-12-04T08:14:07;6.03;;;3.70;;
65759;SDS011;52496;51.082;5.066;2023-12-04T08:16:37;7.43;;;4.22;;
65759;SDS011;52496;51.082;5.066;2023-12-04T08:19:08;7.25;;;3.47;;
65759;SDS011;52496;51.082;5.066;2023-12-04T08:21:38;8.88;;;3.65;;
65759;SDS011;52496;51.082;5.066;2023-12-04T08:24:09;8.25;;;4.38;;
65759;SDS011;52496;51.082;5.066;2023-12-04T08:26:39;8.30;;;3.90;;
65759;SDS011;52496;51.082;5.066;2023-12-04T08:29:10;6.45;;;3.72;;
65759;SDS011;52496;51.082;5.066;2023-12-04T08:31:40;7.38;;;3.33;;
65759;SDS011;52496;51.082;5.066;2023-12-04T08:34:11;7.28;;;3.55;;
65759;SDS011;52496;51.082;5.066;2023-12-04T08:36:42;6.40;;;3.58;;
65759;SDS011;52496;51.082;5.066;2023-12-04T08:39:12;6.43;;;3.30;;
65759;SDS011;52496;51.082;5.066;2023-12-04T08:41:46;7.10;;;3.40;;
65759;SDS011;52496;51.082;5.066;2023-12-04T08:44:19;9.93;;;3.17;;
65759;SDS011;52496;51.082;5.066;2023-12-04T08:46:49;8.35;;;3.65;;
65759;SDS011;52496;51.082;5.066;2023-12-04T08:49:20;6.25;;;3.35;;
65759;SDS011;52496;51.082;5.066;2023-12-04T08:51:53;6.07;;;3.20;;
65759;SDS011;52496;51.082;5.066;2023-12-04T08:54:24;7.78;;;3.50;;
65759;SDS011;52496;51.082;5.066;2023-12-04T08:56:54;6.65;;;3.00;;
65759;SDS011;52496;51.082;5.066;2023-12-04T08:59:25;5.55;;;3.03;;
65759;SDS011;52496;51.082;5.066;2023-12-04T09:01:56;6.53;;;3.30;;
65759;SDS011;52496;51.082;5.066;2023-12-04T09:04:27;4.90;;;3.03;;
65759;SDS011;52496;51.082;5.066;2023-12-04T09:06:57;9.60;;;4.40;;
65759;SDS011;52496;51.082;5.066;2023-12-04T09:09:28;5.78;;;3.33;;
65759;SDS011;52496;51.082;5.066;2023-12-04T09:11:59;6.80;;;3.78;;
65759;SDS011;52496;51.082;5.066;2023-12-04T09:14:29;6.57;;;4.00;;
65759;SDS011;52496;51.082;5.066;2023-12-04T09:17:00;8.18;;;3.00;;
65759;SDS011;52496;51.082;5.066;2023-12-04T09:19:30;9.90;;;4.75;;
65759;SDS011;52496;51.082;5.066;2023-12-04T09:22:01;8.32;;;3.70;;
65759;SDS011;52496;51.082;5.066;2023-12-04T09:24:32;8.55;;;3.70;;
65759;SDS011;52496;51.082;5.066;2023-12-04T09:27:03;9.05;;;4.78;;
65759;SDS011;52496;51.082;5.066;2023-12-04T09:29:33;8.60;;;4.40;;
65759;SDS011;52496;51.082;5.066;2023-12-04T09:32:04;9.43;;;4.53;;
65759;SDS011;52496;51.082;5.066;2023-12-04T09:34:35;8.10;;;4.47;;
65759;SDS011;52496;51.082;5.066;2023-12-04T09:37:05;7.53;;;4.22;;
65759;SDS011;52496;51.082;5.066;2023-12-04T09:39:37;8.10;;;4.63;;
65759;SDS011;52496;51.082;5.066;2023-12-04T09:42:08;9.98;;;4.68;;
65759;SDS011;52496;51.082;5.066;2023-12-04T09:44:40;13.60;;;4.20;;
65759;SDS011;52496;51.082;5.066;2023-12-04T09:47:11;9.20;;;4.15;;
65759;SDS011;52496;51.082;5.066;2023-12-04T09:49:41;6.82;;;4.28;;
65759;SDS011;52496;51.082;5.066;2023-12-04T09:52:12;9.95;;;3.88;;
65759;SDS011;52496;51.082;5.066;2023-12-04T09:54:43;7.45;;;3.90;;
65759;SDS011;52496;51.082;5.066;2023-12-04T09:57:14;8.40;;;3.80;;
65759;SDS011;52496;51.082;5.066;2023-12-04T09:59:45;6.72;;;3.53;;
65759;SDS011;52496;51.082;5.066;2023-12-04T10:02:18;7.65;;;3.72;;
65759;SDS011;52496;51.082;5.066;2023-12-04T10:04:50;7.28;;;3.78;;
65759;SDS011;52496;51.082;5.066;2023-12-04T10:07:22;7.60;;;3.50;;
65759;SDS011;52496;51.082;5.066;2023-12-04T10:09:52;6.35;;;3.72;;
65759;SDS011;52496;51.082;5.066;2023-12-04T10:12:23;7.63;;;4.25;;
65759;SDS011;52496;51.082;5.066;2023-12-04T10:17:37;9.50;;;3.80;;
65759;SDS011;52496;51.082;5.066;2023-12-04T10:20:10;8.90;;;4.22;;
65759;SDS011;52496;51.082;5.066;2023-12-04T10:22:57;7.55;;;4.22;;
65759;SDS011;52496;51.082;5.066;2023-12-04T10:25:30;6.68;;;3.88;;
65759;SDS011;52496;51.082;5.066;2023-12-04T10:28:07;8.90;;;4.45;;
65759;SDS011;52496;51.082;5.066;2023-12-04T10:30:39;7.72;;;3.92;;
65759;SDS011;52496;51.082;5.066;2023-12-04T10:33:10;9.65;;;4.00;;
65759;SDS011;52496;51.082;5.066;2023-12-04T10:35:42;6.72;;;3.80;;
65759;SDS011;52496;51.082;5.066;2023-12-04T10:38:13;6.72;;;3.70;;
65759;SDS011;52496;51.082;5.066;2023-12-04T10:40:44;10.23;;;4.85;;
65759;SDS011;52496;51.082;5.066;2023-12-04T10:43:15;31.75;;;6.72;;
65759;SDS011;52496;51.082;5.066;2023-12-04T10:45:50;10.15;;;5.22;;
65759;SDS011;52496;51.082;5.066;2023-12-04T10:48:21;12.40;;;5.82;;
65759;SDS011;52496;51.082;5.066;2023-12-04T10:50:52;9.55;;;5.35;;
65759;SDS011;52496;51.082;5.066;2023-12-04T10:53:23;8.00;;;4.47;;
65759;SDS011;52496;51.082;5.066;2023-12-04T10:55:54;9.32;;;5.45;;
65759;SDS011;52496;51.082;5.066;2023-12-04T10:58:26;8.20;;;5.10;;
65759;SDS011;52496;51.082;5.066;2023-12-04T11:00:57;9.18;;;5.50;;
65759;SDS011;52496;51.082;5.066;2023-12-04T11:03:32;10.68;;;6.25;;
65759;SDS011;52496;51.082;5.066;2023-12-04T11:06:07;13.07;;;5.97;;
65759;SDS011;52496;51.082;5.066;2023-12-04T11:08:41;9.60;;;5.45;;
65759;SDS011;52496;51.082;5.066;2023-12-04T11:11:12;11.85;;;4.80;;
65759;SDS011;52496;51.082;5.066;2023-12-04T11:13:49;14.07;;;5.30;;
65759;SDS011;52496;51.082;5.066;2023-12-04T11:16:28;10.00;;;5.53;;
65759;SDS011;52496;51.082;5.066;2023-12-04T11:21:59;8.00;;;4.90;;
65759;SDS011;52496;51.082;5.066;2023-12-04T11:24:31;9.55;;;4.72;;
65759;SDS011;52496;51.082;5.066;2023-12-04T11:27:01;8.43;;;4.88;;
65759;SDS011;52496;51.082;5.066;2023-12-04T11:29:33;9.13;;;4.20;;
65759;SDS011;52496;51.082;5.066;2023-12-04T11:32:07;9.40;;;5.30;;
65759;SDS011;52496;51.082;5.066;2023-12-04T11:34:38;8.02;;;5.00;;
65759;SDS011;52496;51.082;5.066;2023-12-04T11:37:19;12.30;;;5.30;;
65759;SDS011;52496;51.082;5.066;2023-12-04T11:39:50;10.23;;;4.53;;
65759;SDS011;52496;51.082;5.066;2023-12-04T11:42:24;8.55;;;4.60;;
65759;SDS011;52496;51.082;5.066;2023-12-04T11:44:58;9.25;;;4.55;;
65759;SDS011;52496;51.082;5.066;2023-12-04T11:47:28;9.57;;;4.57;;
65759;SDS011;52496;51.082;5.066;2023-12-04T11:49:59;9.55;;;5.30;;
65759;SDS011;52496;51.082;5.066;2023-12-04T11:52:32;9.18;;;4.53;;
65759;SDS011;52496;51.082;5.066;2023-12-04T11:55:06;9.00;;;4.50;;
65759;SDS011;52496;51.082;5.066;2023-12-04T11:57:38;12.23;;;5.95;;
65759;SDS011;52496;51.082;5.066;2023-12-04T12:02:44;10.05;;;4.85;;
65759;SDS011;52496;51.082;5.066;2023-12-04T12:05:31;6.77;;;4.00;;
65759;SDS011;52496;51.082;5.066;2023-12-04T12:08:03;8.32;;;4.00;;
65759;SDS011;52496;51.082;5.066;2023-12-04T12:10:35;8.70;;;4.47;;
65759;SDS011;52496;51.082;5.066;2023-12-04T12:13:05;8.50;;;4.75;;
65759;SDS011;52496;51.082;5.066;2023-12-04T12:15:36;8.95;;;4.47;;
65759;SDS011;52496;51.082;5.066;2023-12-04T12:18:06;7.70;;;4.63;;
65759;SDS011;52496;51.082;5.066;2023-12-04T12:20:37;9.27;;;4.07;;
65759;SDS011;52496;51.082;5.066;2023-12-04T12:23:08;12.30;;;5.07;;
65759;SDS011;52496;51.082;5.066;2023-12-04T12:25:38;8.60;;;4.88;;
65759;SDS011;52496;51.082;5.066;2023-12-04T12:28:09;13.15;;;4.65;;
65759;SDS011;52496;51.082;5.066;2023-12-04T12:30:40;9.73;;;5.18;;
65759;SDS011;52496;51.082;5.066;2023-12-04T12:33:13;6.38;;;4.22;;
65759;SDS011;52496;51.082;5.066;2023-12-04T12:35:44;8.90;;;4.15;;
65759;SDS011;52496;51.082;5.066;2023-12-04T12:38:15;8.07;;;4.10;;
65759;SDS011;52496;51.082;5.066;2023-12-04T12:40:45;7.25;;;4.05;;
65759;SDS011;52496;51.082;5.066;2023-12-04T12:43:16;6.70;;;3.97;;
65759;SDS011;52496;51.082;5.066;2023-12-04T12:45:51;8.20;;;3.75;;
65759;SDS011;52496;51.082;5.066;2023-12-04T12:48:21;8.00;;;3.33;;
65759;SDS011;52496;51.082;5.066;2023-12-04T12:50:52;8.88;;;5.03;;
65759;SDS011;52496;51.082;5.066;2023-12-04T12:53:24;7.80;;;4.65;;
65759;SDS011;52496;51.082;5.066;2023-12-04T12:55:55;8.00;;;3.97;;
65759;SDS011;52496;51.082;5.066;2023-12-04T12:58:26;8.95;;;5.20;;
65759;SDS011;52496;51.082;5.066;2023-12-04T13:00:57;8.63;;;4.65;;
65759;SDS011;52496;51.082;5.066;2023-12-04T13:03:29;10.75;;;4.40;;
65759;SDS011;52496;51.082;5.066;2023-12-04T13:06:01;7.22;;;4.10;;
65759;SDS011;52496;51.082;5.066;2023-12-04T13:08:32;8.00;;;4.50;;
65759;SDS011;52496;51.082;5.066;2023-12-04T13:11:02;10.98;;;4.20;;
65759;SDS011;52496;51.082;5.066;2023-12-04T13:13:34;9.02;;;4.72;;
65759;SDS011;52496;51.082;5.066;2023-12-04T13:16:05;7.93;;;3.97;;
65759;SDS011;52496;51.082;5.066;2023-12-04T13:18:36;7.18;;;4.25;;
65759;SDS011;52496;51.082;5.066;2023-12-04T13:21:07;7.38;;;4.70;;
65759;SDS011;52496;51.082;5.066;2023-12-04T13:23:41;8.60;;;4.20;;
65759;SDS011;52496;51.082;5.066;2023-12-04T13:26:12;8.27;;;3.95;;
65759;SDS011;52496;51.082;5.066;2023-12-04T13:28:42;7.85;;;4.38;;
65759;SDS011;52496;51.082;5.066;2023-12-04T13:31:13;12.60;;;4.70;;
65759;SDS011;52496;51.082;5.066;2023-12-04T13:33:43;22.23;;;5.20;;
65759;SDS011;52496;51.082;5.066;2023-12-04T13:36:16;8.35;;;4.85;;
65759;SDS011;52496;51.082;5.066;2023-12-04T13:38:46;7.22;;;3.78;;
65759;SDS011;52496;51.082;5.066;2023-12-04T13:41:17;9.45;;;4.70;;
65759;SDS011;52496;51.082;5.066;2023-12-04T13:44:06;10.10;;;4.45;;
65759;SDS011;52496;51.082;5.066;2023-12-04T13:46:37;7.50;;;4.30;;
65759;SDS011;52496;51.082;5.066;2023-12-04T13:49:07;9.30;;;5.43;;
65759;SDS011;52496;51.082;5.066;2023-12-04T13:51:38;7.50;;;4.15;;
65759;SDS011;52496;51.082;5.066;2023-12-04T13:54:10;9.35;;;4.93;;
65759;SDS011;52496;51.082;5.066;2023-12-04T13:56:51;7.80;;;4.57;;
65759;SDS011;52496;51.082;5.066;2023-12-04T13:59:26;7.97;;;4.55;;
65759;SDS011;52496;51.082;5.066;2023-12-04T14:01:57;9.15;;;4.07;;
65759;SDS011;52496;51.082;5.066;2023-12-04T14:04:30;8.05;;;4.43;;
65759;SDS011;52496;51.082;5.066;2023-12-04T14:07:00;13.20;;;4.82;;
65759;SDS011;52496;51.082;5.066;2023-12-04T14:09:31;7.85;;;3.92;;
65759;SDS011;52496;51.082;5.066;2023-12-04T14:12:02;9.05;;;5.35;;
65759;SDS011;52496;51.082;5.066;2023-12-04T14:14:33;8.50;;;4.38;;
65759;SDS011;52496;51.082;5.066;2023-12-04T14:17:04;8.80;;;5.13;;
65759;SDS011;52496;51.082;5.066;2023-12-04T14:19:38;8.27;;;4.88;;
65759;SDS011;52496;51.082;5.066;2023-12-04T14:22:09;8.85;;;4.55;;
65759;SDS011;52496;51.082;5.066;2023-12-04T14:24:40;10.75;;;6.03;;
65759;SDS011;52496;51.082;5.066;2023-12-04T14:27:10;11.15;;;6.30;;
65759;SDS011;52496;51.082;5.066;2023-12-04T14:29:41;8.85;;;5.10;;
65759;SDS011;52496;51.082;5.066;2023-12-04T14:32:12;10.80;;;7.60;;
65759;SDS011;52496;51.082;5.066;2023-12-04T14:34:43;10.15;;;5.75;;
65759;SDS011;52496;51.082;5.066;2023-12-04T14:37:14;11.50;;;5.88;;
65759;SDS011;52496;51.082;5.066;2023-12-04T14:39:44;8.85;;;4.95;;
65759;SDS011;52496;51.082;5.066;2023-12-04T14:42:15;9.63;;;6.00;;
65759;SDS011;52496;51.082;5.066;2023-12-04T14:44:46;9.00;;;5.63;;
65759;SDS011;52496;51.082;5.066;2023-12-04T14:47:17;10.57;;;5.28;;
65759;SDS011;52496;51.082;5.066;2023-12-04T14:49:47;8.90;;;4.88;;
65759;SDS011;52496;51.082;5.066;2023-12-04T14:52:23;10.65;;;6.90;;
65759;SDS011;52496;51.082;5.066;2023-12-04T14:54:54;12.02;;;7.53;;
65759;SDS011;52496;51.082;5.066;2023-12-04T14:57:39;13.32;;;6.65;;
65759;SDS011;52496;51.082;5.066;2023-12-04T15:00:10;17.65;;;11.95;;
65759;SDS011;52496;51.082;5.066;2023-12-04T15:02:59;11.48;;;8.07;;
65759;SDS011;52496;51.082;5.066;2023-12-04T15:05:48;31.83;;;18.50;;
65759;SDS011;52496;51.082;5.066;2023-12-04T15:08:27;55.25;;;37.90;;
65759;SDS011;52496;51.082;5.066;2023-12-04T15:11:16;25.80;;;17.35;;
65759;SDS011;52496;51.082;5.066;2023-12-04T15:14:05;25.05;;;17.42;;
65759;SDS011;52496;51.082;5.066;2023-12-04T15:16:59;32.30;;;23.10;;